Cytokinetics Inc (NASDAQ:CYTK)

CAPS Rating: 3 out of 5

A biopharmaceutical company, focused on developing small molecule therapeutics for the treatment of cardiovascular diseases and cancer.

Results 1 - 99 of 190 : 1 2 Next »
Top
Pick
Member Name Member
Rating
Start
Date
Call Time
Frame
Start
Price
Stock
Gain
Index
Gain
Score Commentary
dollarsandcents1 < 20 7/23/2015 Outperform 5Y $6.96 -5.46% -0.85% -4.61 0 Comment
superstar 99.80 7/22/2015 Outperform 5Y $6.89 -4.50% -0.74% -3.76 0 Comment
JimAnder 67.82 7/1/2015 Outperform 5Y $6.74 -2.37% +0.96% -3.34 0 Comment
portefeuille 99.70 5/1/2015 Outperform 5Y $5.97 +10.22% +0.02% +10.19 0 Comment
OttoBismarck 99.88 3/3/2015 Underperform 5Y $7.87 -16.39% -0.82% +15.57 0 Comment
icewater3 92.53 2/17/2015 Outperform 1Y $8.30 -20.72% -0.05% -20.68 0 Comment
vrpaul 69.55 1/21/2015 Outperform 5Y $7.26 -9.30% +3.60% -12.90 0 Comment
dflo 77.67 12/5/2014 Outperform 5Y $4.57 +43.98% +0.89% +43.09 0 Comment
Playa14 < 20 11/28/2014 Outperform 5Y $4.58 +43.67% +1.08% +42.59 0 Comment
cthomas1017 93.84 11/18/2014 Underperform 5Y $4.11 +60.10% +2.59% -57.51 0 Comment
flemishinvestor < 20 11/18/2014 Outperform 3Y $4.21 +56.29% +2.16% +54.13 0 Comment
MacroHedge 91.24 11/7/2014 Outperform 5Y $4.11 +60.10% +3.20% +56.90 0 Comment
hayrettin 70.13 10/13/2014 Outperform 5Y $3.37 +95.25% +10.36% +84.89 0 Comment
ptanabe 72.89 9/9/2014 Outperform 5Y $3.67 +79.17% +4.82% +74.35 1 Comment
GyroDynasty 98.47 7/21/2014 Outperform 5Y $4.25 +54.82% +6.41% +48.41 0 Comment
OKwarrior 42.83 6/6/2014 Outperform 5Y $4.88 +34.84% +7.63% +27.21 1 Comment
ArmyRob 75.85 5/7/2014 Underperform 5Y $4.14 +58.94% +11.84% -47.09 0 Comment
AsianMatter < 20 4/28/2014 Outperform 3W $4.58 +43.67% +12.13% +31.54 0 Comment
portefeuille2 99.74 4/25/2014 Outperform 5Y $4.91 +34.15% +12.41% +21.74 0 Comment
peregrine 99.46 4/25/2014 Outperform 5Y $5.07 +29.78% +12.70% +17.08 0 Comment
TerryFool 62.56 4/15/2014 Outperform 5Y $8.94 -26.40% +15.16% -41.56 1 Comment
TerryHoodSr 77.01 4/15/2014 Outperform 5Y $8.94 -26.40% +14.44% -40.84 1 Comment
IVolStrategy 20.90 3/26/2014 Outperform 1Y $9.02 -27.05% +12.14% -39.19 0 Comment
Dmaral < 20 2/27/2014 Outperform 5Y $10.31 -36.18% +13.20% -49.38 0 Comment
This player feels very strongly about this pick and has marked it a Top Pick. Top Picks do not affect a player’s score. s2dbaker 92.68 1/10/2014 Outperform 5Y $9.22 -28.63% +14.21% -42.85 1 Comment
flypower 99.58 1/7/2014 Outperform 5Y $7.30 -9.86% +14.55% -24.41 0 Comment
HoosierDoozer 41.39 12/23/2013 Outperform 5Y $6.60 -0.30% +14.89% -15.19 0 Comment
grahamfordummies 66.03 8/8/2013 12/4/2013 Outperform 3Y $10.21 -35.55% +23.39% -58.94 1 Comment
cavemantrader 88.86 11/7/2013 Outperform 5Y $6.33 +3.95% +19.86% -15.91 0 Comment
mandynshane < 20 10/8/2013 Outperform NS $6.69 -1.64% +25.76% -27.41 0 Comment
ImFive 40.19 10/7/2013 Outperform 5Y $7.03 -6.40% +25.27% -31.67 0 Comment
ralonsot < 20 10/2/2013 Outperform 5Y $7.38 -10.84% +24.24% -35.08 0 Comment
withoutDoubt 22.51 9/5/2013 Outperform 5Y $8.32 -20.96% +26.25% -47.21 0 Comment
fatmoneyrz 99.31 9/3/2013 Outperform 5Y $7.79 -15.53% +26.89% -42.42 0 Comment
KidJones 96.38 9/3/2013 Outperform 5Y $8.62 -23.67% +26.93% -50.60 0 Comment
Greeniesnack 43.52 8/23/2013 Outperform 5Y $11.11 -40.77% +25.93% -66.70 0 Comment
FoolPep 33.06 8/22/2013 Outperform 3M $11.60 -43.28% +27.19% -70.46 0 Comment
SCOTTRHUETTLCPA 60.52 8/19/2013 Underperform 3W $10.18 -35.36% +26.97% +62.33 0 Comment
rknapton < 20 8/7/2013 Underperform 5Y $10.55 -37.63% +23.96% +61.59 1 Comment
ababrmon 98.23 7/31/2013 Outperform 3M $12.47 -47.23% +24.34% -71.57 0 Comment
efarev 99.64 2/4/2011 7/26/2013 Outperform 5Y $11.16 -41.04% +60.27% -101.31 0 Comment
ronmcpeek < 20 7/19/2013 Outperform 5Y $13.43 -51.01% +24.45% -75.46 0 Comment
TMFEZMagic < 20 7/15/2013 Underperform 5Y $13.76 -52.18% +24.90% +77.08 0 Comment
kaletbaldrich27 < 20 7/10/2013 Outperform 1Y $13.30 -50.53% +27.26% -77.79 1 Comment
OriginalBarnacle 71.87 7/1/2013 Underperform 1Y $11.58 -43.18% +30.06% +73.23 0 Comment
Jsams82 < 20 7/1/2013 Outperform 1Y $11.58 -43.18% +30.06% -73.23 0 Comment
JJ68 < 20 6/26/2013 Outperform 5Y $12.10 -45.64% +31.41% -77.05 0 Comment
ytryan 23.91 6/19/2013 Outperform 5Y $11.28 -41.67% +27.36% -69.03 0 Comment
Scraming < 20 6/19/2013 Outperform 3M $11.58 -43.18% +26.70% -69.88 0 Comment
saab93boi 22.31 6/18/2013 Underperform 5Y $11.10 -40.72% +26.42% +67.14 0 Comment
shonny2 < 20 5/22/2013 Outperform 5Y $6.90 -4.63% +25.09% -29.72 0 Comment
ava5147 < 20 2/19/2013 Outperform 1Y $6.24 +5.45% +37.65% -32.20 0 Comment
mcdbenbe 20.52 2/19/2013 Outperform 5Y $6.24 +5.45% +37.65% -32.20 0 Comment
montys3 < 20 1/22/2013 Outperform 5Y $5.99 +9.92% +40.91% -30.99 0 Comment
Spyrig < 20 12/17/2012 Outperform 5Y $4.02 +63.68% +47.21% +16.47 0 Comment
mdrnsamurai < 20 12/12/2012 Outperform 5Y $4.29 +53.38% +45.65% +7.73 0 Comment
danculbertson 72.08 10/15/2012 Outperform 3M $4.41 +49.21% +45.98% +3.23 0 Comment
millerto 66.58 8/31/2012 Outperform 1Y $4.58 +43.75% +48.81% -5.06 0 Comment
IdahoInvestor 29.08 8/8/2012 Underperform 5Y $4.00 +64.47% +49.26% -15.20 0 Comment
iadops40 62.91 7/13/2012 Outperform 1Y $4.02 +63.68% +56.68% +7.00 0 Comment
THERULERGOD < 20 7/11/2012 Outperform 5Y $4.26 +54.46% +56.27% -1.81 0 Comment
greentah 44.16 7/9/2012 Outperform 5Y $4.32 +52.31% +54.92% -2.60 0 Comment
HongHue 73.89 7/6/2012 Outperform 1Y $3.90 +68.72% +54.82% +13.90 0 Comment
Harlequinvestor 43.51 6/18/2012 Outperform 1Y $5.16 +27.52% +57.01% -29.49 0 Comment
ConradMike55 < 20 5/10/2012 Outperform 3W $5.58 +17.92% +53.45% -35.52 0 Comment
Arsenal1860 < 20 5/10/2012 Outperform 5Y $5.58 +17.92% +53.45% -35.52 0 Comment
MythQuinn 79.08 5/8/2012 Outperform 3Y $5.52 +19.20% +53.63% -34.42 0 Comment
stainsolution 81.16 5/8/2012 Outperform 5Y $5.70 +15.44% +53.90% -38.46 0 Comment
foolbull12 43.71 5/8/2012 Outperform 5Y $5.52 +19.20% +54.07% -34.86 0 Comment
RBuskey106 68.30 3/15/2012 Outperform 5Y $7.14 -7.84% +49.20% -57.04 1 Comment
TechSci 21.00 3/6/2012 Outperform 5Y $6.54 +0.61% +55.41% -54.80 0 Comment
mhy729 32.87 2/17/2011 2/13/2012 Outperform 1Y $9.18 -28.30% +56.87% -85.17 0 Comment
drt2202 < 20 12/29/2011 Outperform 5Y $5.94 +10.77% +67.46% -56.69 0 Comment
CaptainVegetable < 20 8/5/2011 Outperform 5Y $7.14 -7.84% +72.49% -80.33 0 Comment
pobeda79 36.35 6/20/2011 Outperform 5Y $6.90 -4.64% +65.64% -70.28 0 Comment
amsteinberg86 < 20 5/31/2011 Outperform 3Y $8.64 -23.84% +55.62% -79.46 0 Comment
codyjr002 97.12 5/27/2011 Outperform 5Y $8.64 -23.84% +57.10% -80.94 0 Comment
Thleter 53.15 5/24/2011 Outperform 1Y $8.10 -18.77% +58.92% -77.69 1 Comment
ag77840 24.13 5/18/2011 Outperform 5Y $8.61 -23.58% +56.30% -79.88 0 Comment
Doggity 68.76 5/17/2011 Outperform 5Y $8.64 -23.84% +58.06% -81.90 0 Comment
Euro247 35.11 5/13/2011 Outperform 5Y $8.79 -25.14% +56.67% -81.81 0 Comment
inouye 64.43 5/3/2011 Outperform 1Y $8.52 -22.77% +54.71% -77.48 0 Comment
NVTreasureHunter 29.02 4/27/2011 Outperform NS $9.00 -26.89% +55.30% -82.19 0 Comment
Squeege1981 < 20 4/18/2011 Outperform 5Y $8.64 -23.84% +60.60% -84.44 0 Comment
reachmygoals1 < 20 4/11/2011 Outperform 3M $8.94 -26.40% +57.69% -84.09 0 Comment
limeonaire 98.86 4/4/2011 Outperform 5Y $9.00 -26.89% +57.18% -84.07 0 Comment
ajhers2 20.71 3/25/2011 Outperform 5Y $8.46 -22.22% +59.08% -81.30 0 Comment
lombardy 29.79 3/22/2011 Outperform 5Y $7.62 -13.65% +61.68% -75.33 0 Comment
binyalazar < 20 3/10/2011 Outperform 5Y $8.99 -26.84% +60.61% -87.45 0 Comment
WorldOnFire 28.70 2/23/2011 Outperform 3W $8.70 -24.37% +59.19% -83.56 0 Comment
HackInvestor 20.34 2/22/2011 Outperform 5Y $9.12 -27.85% +57.55% -85.40 0 Comment
cheaply 23.05 2/10/2011 Outperform 1Y $11.16 -41.04% +59.37% -100.41 1 Comment
phineas333 30.40 2/10/2011 Outperform 5Y $11.04 -40.40% +59.37% -99.77 0 Comment
Cjbrat1 29.38 1/10/2011 Outperform 5Y $12.36 -46.76% +65.69% -112.45 0 Comment
atlasbooks 86.65 1/4/2011 Outperform 3M $12.96 -49.23% +64.71% -113.94 0 Comment
FinanceGuy58 50.14 12/20/2010 Outperform 5Y $13.14 -49.92% +68.27% -118.19 0 Comment
Okcfirefighter < 20 12/17/2010 Outperform 5Y $12.72 -48.27% +68.67% -116.95 0 Comment
smcnei2 26.38 12/13/2010 Outperform NS $13.80 -52.32% +67.72% -120.04 0 Comment
huthuthike 28.53 12/10/2010 Outperform 5Y $16.56 -60.27% +68.62% -128.89 0 Comment
Results 1 - 99 of 190 : 1 2 Next »

Featured Broker Partners


Advertisement